Time;durP1;ratioP1;P1;durP2;ratioP2;P2;SDS_P1;SDS_P2;PMS_P1;PMS_P2;Temp;Humidity;BMP_temperature;BMP_pressure;BME280_temperature;BME280_humidity;BME280_pressure;Samples;Min_cycle;Max_cycle;Signal;HPM_P1;HPM_P2
2023/03/05 00:01:03;;;;;;;;;;;4.70;98.80;;;;;;5090112;28;19991;-74
2023/03/05 00:03:28;;;;;;;;;;;4.70;98.80;;;;;;5088349;28;20289;-74
2023/03/05 00:05:57;;;;;;;;;;;4.70;98.80;;;;;;5084379;28;19965;-74
2023/03/05 00:08:22;;;;;;;;;;;4.70;98.80;;;;;;5085673;28;19916;-74
2023/03/05 00:10:54;;;;;;;;;;;4.70;98.80;;;;;;5085595;28;19923;-74
2023/03/05 00:13:20;;;;;;;;;;;4.70;98.80;;;;;;5088828;28;20380;-74
2023/03/05 00:15:45;;;;;;;;;;;4.70;98.80;;;;;;5089647;28;19915;-74
2023/03/05 00:18:11;;;;;;;;;;;4.70;98.80;;;;;;5089133;28;20007;-74
2023/03/05 00:20:36;;;;;;;;;;;4.70;98.80;;;;;;5089453;28;19912;-74
2023/03/05 00:23:02;;;;;;;;;;;4.70;98.90;;;;;;5104427;28;19920;-74
2023/03/05 00:25:27;;;;;;;;;;;4.70;98.90;;;;;;5089445;28;20077;-74
2023/03/05 00:27:53;;;;;;;;;;;4.70;98.90;;;;;;5087945;28;20382;-74
2023/03/05 00:30:18;;;;;;;;;;;4.70;98.80;;;;;;5087981;28;19912;-74
2023/03/05 00:32:43;;;;;;;;;;;4.70;98.90;;;;;;5089123;28;19997;-74
2023/03/05 00:35:09;;;;;;;;;;;4.60;98.90;;;;;;5092149;28;19972;-74
2023/03/05 00:37:35;;;;;;;;;;;4.60;98.90;;;;;;5108698;28;19919;-73
2023/03/05 00:40:00;;;;;;;;;;;4.60;99.00;;;;;;5108950;28;20007;-73
2023/03/05 00:42:26;;;;;;;;;;;4.60;99.00;;;;;;5095032;28;19916;-73
2023/03/05 00:44:51;;;;;;;;;;;4.60;99.00;;;;;;5089218;28;20460;-74
2023/03/05 00:47:17;;;;;;;;;;;4.60;99.00;;;;;;5088713;28;19912;-74
2023/03/05 00:49:43;;;;;;;;;;;4.60;99.00;;;;;;5095790;28;19907;-74
2023/03/05 00:52:08;;;;;;;;;;;4.60;99.00;;;;;;5109179;28;20008;-74
2023/03/05 00:54:34;;;;;;;;;;;4.60;99.10;;;;;;5093232;28;19916;-74
2023/03/05 00:56:59;;;;;;;;;;;4.60;99.10;;;;;;5088862;28;19919;-74
2023/03/05 00:59:25;;;;;;;;;;;4.60;99.10;;;;;;5088612;28;19930;-74
2023/03/05 01:01:50;;;;;;;;;;;4.60;99.20;;;;;;5088667;28;19921;-74
2023/03/05 01:04:16;;;;;;;;;;;4.60;99.10;;;;;;5102261;28;19998;-75
2023/03/05 01:06:43;;;;;;;;;;;4.60;99.20;;;;;;5092075;28;20368;-74
2023/03/05 01:09:09;;;;;;;;;;;4.60;99.20;;;;;;5087620;28;19908;-73
2023/03/05 01:11:34;;;;;;;;;;;4.60;99.20;;;;;;5088232;28;19912;-73
2023/03/05 01:14:00;;;;;;;;;;;4.60;99.20;;;;;;5088718;28;19997;-74
2023/03/05 01:16:25;;;;;;;;;;;4.50;99.20;;;;;;5088632;28;19995;-74
2023/03/05 01:18:51;;;;;;;;;;;4.60;99.20;;;;;;5107222;28;19920;-74
2023/03/05 01:21:16;;;;;;;;;;;4.60;99.20;;;;;;5108934;28;20661;-74
2023/03/05 01:23:42;;;;;;;;;;;4.50;99.20;;;;;;5099800;28;20323;-74
2023/03/05 01:26:08;;;;;;;;;;;4.50;99.20;;;;;;5088425;28;19969;-74
2023/03/05 01:28:34;;;;;;;;;;;4.60;99.20;;;;;;5088049;28;19915;-74
2023/03/05 01:30:59;;;;;;;;;;;4.60;99.30;;;;;;5092894;28;19915;-73
2023/03/05 01:33:25;;;;;;;;;;;4.50;99.30;;;;;;5108474;28;19915;-73
2023/03/05 01:35:51;;;;;;;;;;;4.50;99.20;;;;;;5098218;28;19908;-74
2023/03/05 01:38:17;;;;;;;;;;;4.50;99.20;;;;;;5087828;28;19966;-74
2023/03/05 01:40:43;;;;;;;;;;;4.50;99.30;;;;;;5088046;28;19912;-73
2023/03/05 01:43:11;;;;;;;;;;;4.50;99.20;;;;;;5067560;28;19926;-74
2023/03/05 01:45:37;;;;;;;;;;;4.50;99.30;;;;;;5088913;28;20011;-74
2023/03/05 01:48:03;;;;;;;;;;;4.50;99.30;;;;;;5108192;28;19994;-74
2023/03/05 01:50:29;;;;;;;;;;;4.50;99.30;;;;;;5088029;28;19916;-75
2023/03/05 01:53:00;;;;;;;;;;;4.50;99.30;;;;;;5087906;28;19942;-73
2023/03/05 01:55:28;;;;;;;;;;;4.50;99.30;;;;;;5088193;28;19916;-74
2023/03/05 01:57:59;;;;;;;;;;;4.50;99.30;;;;;;5087579;28;19991;-74
2023/03/05 02:00:26;;;;;;;;;;;4.50;99.30;;;;;;5082718;28;20689;-74
2023/03/05 02:02:52;;;;;;;;;;;4.50;99.20;;;;;;5087644;28;20028;-73
2023/03/05 02:05:25;;;;;;;;;;;4.50;99.30;;;;;;5087802;28;19916;-74
2023/03/05 02:07:53;;;;;;;;;;;4.50;99.30;;;;;;5087304;28;19915;-74
2023/03/05 02:10:20;;;;;;;;;;;4.50;99.40;;;;;;5087205;28;20292;-74
2023/03/05 02:12:46;;;;;;;;;;;4.50;99.40;;;;;;5091799;28;19919;-73
2023/03/05 02:15:11;;;;;;;;;;;4.50;99.40;;;;;;5107796;28;19918;-74
2023/03/05 02:17:37;;;;;;;;;;;4.50;99.30;;;;;;5107086;28;19920;-73
2023/03/05 02:20:07;;;;;;;;;;;4.50;99.40;;;;;;5107834;28;19920;-73
2023/03/05 02:22:32;;;;;;;;;;;4.50;99.30;;;;;;5107676;28;19973;-74
2023/03/05 02:24:58;;;;;;;;;;;4.50;99.40;;;;;;5088679;28;19947;-74
2023/03/05 02:27:33;;;;;;;;;;;4.50;99.40;;;;;;5097869;28;20368;-74
2023/03/05 02:29:59;;;;;;;;;;;4.40;99.30;;;;;;5107950;28;19915;-74
2023/03/05 02:32:24;;;;;;;;;;;4.50;99.40;;;;;;5101181;28;19912;-74
2023/03/05 02:34:50;;;;;;;;;;;4.40;99.40;;;;;;5086446;28;20341;-74
2023/03/05 02:37:15;;;;;;;;;;;4.40;99.40;;;;;;5087351;28;19995;-74
2023/03/05 02:39:41;;;;;;;;;;;4.40;99.40;;;;;;5087292;28;19912;-74
2023/03/05 02:42:06;;;;;;;;;;;4.40;99.40;;;;;;5092653;28;19920;-74
2023/03/05 02:44:32;;;;;;;;;;;4.40;99.40;;;;;;5087578;28;19919;-73
2023/03/05 02:46:57;;;;;;;;;;;4.40;99.40;;;;;;5087621;28;20062;-74
2023/03/05 02:49:23;;;;;;;;;;;4.40;99.40;;;;;;5088456;28;20325;-74
2023/03/05 02:51:48;;;;;;;;;;;4.40;99.50;;;;;;5087435;28;19912;-74
2023/03/05 02:54:14;;;;;;;;;;;4.40;99.70;;;;;;5090428;28;19919;-74
2023/03/05 02:56:39;;;;;;;;;;;4.40;99.50;;;;;;5107813;28;20288;-74
2023/03/05 02:59:05;;;;;;;;;;;4.40;99.40;;;;;;5105977;28;19981;-74
2023/03/05 03:01:30;;;;;;;;;;;4.40;99.40;;;;;;5095200;28;19957;-73
2023/03/05 03:03:56;;;;;;;;;;;4.40;99.50;;;;;;5088929;28;19940;-74
2023/03/05 03:06:21;;;;;;;;;;;4.40;99.40;;;;;;5091201;28;20280;-74
2023/03/05 03:08:47;;;;;;;;;;;4.40;99.40;;;;;;5094662;28;19916;-73
2023/03/05 03:11:12;;;;;;;;;;;4.40;99.40;;;;;;5090689;28;19912;-74
2023/03/05 03:13:38;;;;;;;;;;;4.40;99.40;;;;;;5090916;28;19950;-74
2023/03/05 03:16:05;;;;;;;;;;;4.40;99.40;;;;;;5091055;28;19989;-73
2023/03/05 03:18:31;;;;;;;;;;;4.40;99.50;;;;;;5090565;28;20100;-74
2023/03/05 03:20:57;;;;;;;;;;;4.30;99.40;;;;;;5091100;28;20019;-74
2023/03/05 03:23:22;;;;;;;;;;;4.30;99.40;;;;;;5098041;28;20677;-74
2023/03/05 03:25:48;;;;;;;;;;;4.30;99.40;;;;;;5090824;28;19912;-74
2023/03/05 03:28:13;;;;;;;;;;;4.30;99.40;;;;;;5090317;28;19916;-74
2023/03/05 03:30:39;;;;;;;;;;;4.30;99.40;;;;;;5090497;28;19912;-74
2023/03/05 03:33:04;;;;;;;;;;;4.30;99.40;;;;;;5088956;28;19961;-74
2023/03/05 03:35:30;;;;;;;;;;;4.30;99.40;;;;;;5090554;28;20023;-74
2023/03/05 03:37:55;;;;;;;;;;;4.30;99.40;;;;;;5109252;28;20447;-74
2023/03/05 03:40:21;;;;;;;;;;;4.30;99.40;;;;;;5110915;28;19907;-74
2023/03/05 03:42:46;;;;;;;;;;;4.30;99.40;;;;;;5093057;28;19916;-74
2023/03/05 03:45:12;;;;;;;;;;;4.30;99.40;;;;;;5090381;28;19919;-74
2023/03/05 03:47:38;;;;;;;;;;;4.30;99.40;;;;;;5089757;28;19912;-74
2023/03/05 03:50:04;;;;;;;;;;;4.30;99.40;;;;;;5087313;28;19987;-74
2023/03/05 03:52:29;;;;;;;;;;;4.30;99.40;;;;;;5069799;28;20023;-74
2023/03/05 03:55:00;;;;;;;;;;;4.30;99.50;;;;;;5089386;28;19999;-74
2023/03/05 03:57:26;;;;;;;;;;;4.30;99.40;;;;;;5088215;28;19936;-74
2023/03/05 03:59:51;;;;;;;;;;;4.30;99.40;;;;;;5088801;28;19912;-74
2023/03/05 04:02:17;;;;;;;;;;;4.30;99.40;;;;;;5088401;28;19932;-73
2023/03/05 04:04:42;;;;;;;;;;;4.30;99.40;;;;;;5099171;28;19934;-74
2023/03/05 04:07:08;;;;;;;;;;;4.30;99.50;;;;;;5089604;28;20379;-74
2023/03/05 04:09:34;;;;;;;;;;;4.30;99.50;;;;;;5086855;28;19919;-73
2023/03/05 04:11:59;;;;;;;;;;;4.30;99.50;;;;;;5093597;28;19919;-73
2023/03/05 04:14:26;;;;;;;;;;;4.30;99.50;;;;;;5102450;28;19915;-73
2023/03/05 04:16:51;;;;;;;;;;;4.30;99.50;;;;;;5099846;28;20407;-72
2023/03/05 04:19:17;;;;;;;;;;;4.20;99.40;;;;;;5093248;28;19964;-74
2023/03/05 04:21:42;;;;;;;;;;;4.20;99.40;;;;;;5089555;28;19947;-73
2023/03/05 04:24:08;;;;;;;;;;;4.20;99.50;;;;;;5090224;28;19978;-74
2023/03/05 04:26:33;;;;;;;;;;;4.20;99.50;;;;;;5089786;28;19912;-74
2023/03/05 04:28:59;;;;;;;;;;;4.20;99.50;;;;;;5087462;28;19912;-73
2023/03/05 04:31:24;;;;;;;;;;;4.20;99.40;;;;;;5087630;28;19919;-74
2023/03/05 04:33:50;;;;;;;;;;;4.30;99.50;;;;;;5109115;28;19923;-74
2023/03/05 04:36:16;;;;;;;;;;;4.20;99.40;;;;;;5095072;28;19913;-73
2023/03/05 04:38:41;;;;;;;;;;;4.20;99.50;;;;;;5088879;28;20007;-74
2023/03/05 04:41:06;;;;;;;;;;;4.20;99.40;;;;;;5085706;28;19947;-74
2023/03/05 04:43:32;;;;;;;;;;;4.20;99.40;;;;;;5069065;28;19961;-74
2023/03/05 04:45:58;;;;;;;;;;;4.20;99.50;;;;;;5081673;28;19916;-73
2023/03/05 04:48:23;;;;;;;;;;;4.20;99.50;;;;;;5109093;28;19912;-74
2023/03/05 04:50:49;;;;;;;;;;;4.20;99.50;;;;;;5109311;28;19915;-74
2023/03/05 04:53:14;;;;;;;;;;;4.20;99.50;;;;;;5104225;28;19916;-73
2023/03/05 04:55:40;;;;;;;;;;;4.20;99.50;;;;;;5089061;28;19933;-73
2023/03/05 04:58:05;;;;;;;;;;;4.20;99.50;;;;;;5088732;28;19916;-73
2023/03/05 05:00:31;;;;;;;;;;;4.20;99.50;;;;;;5094393;28;19962;-74
2023/03/05 05:02:57;;;;;;;;;;;4.20;99.50;;;;;;5088821;28;19927;-74
2023/03/05 05:05:23;;;;;;;;;;;4.20;99.50;;;;;;5088762;28;19912;-73
2023/03/05 05:07:52;;;;;;;;;;;4.20;99.60;;;;;;5088542;28;19912;-74
2023/03/05 05:10:17;;;;;;;;;;;4.10;99.50;;;;;;5087855;28;19912;-74
2023/03/05 05:12:43;;;;;;;;;;;4.10;99.50;;;;;;5088594;28;19915;-74
2023/03/05 05:15:09;;;;;;;;;;;4.20;99.60;;;;;;5104566;28;20491;-74
2023/03/05 05:17:34;;;;;;;;;;;4.20;99.60;;;;;;5107114;28;20280;-73
2023/03/05 05:20:00;;;;;;;;;;;4.10;99.60;;;;;;5108768;28;19943;-74
2023/03/05 05:22:26;;;;;;;;;;;4.20;99.80;;;;;;5108743;27;20269;-74
2023/03/05 05:24:52;;;;;;;;;;;4.10;99.50;;;;;;5090172;28;19993;-73
2023/03/05 05:27:17;;;;;;;;;;;4.10;99.80;;;;;;5090470;28;19916;-74
2023/03/05 05:29:45;;;;;;;;;;;4.10;99.50;;;;;;5108815;28;19911;-74
2023/03/05 05:32:11;;;;;;;;;;;4.10;99.50;;;;;;5108651;28;19908;-73
2023/03/05 05:34:36;;;;;;;;;;;4.10;99.50;;;;;;5108728;28;20618;-74
2023/03/05 05:37:01;;;;;;;;;;;4.10;99.50;;;;;;5088286;28;19912;-74
2023/03/05 05:39:27;;;;;;;;;;;4.10;99.50;;;;;;5088023;28;20348;-74
2023/03/05 05:41:52;;;;;;;;;;;4.10;99.60;;;;;;5087546;28;19916;-74
2023/03/05 05:44:18;;;;;;;;;;;4.10;99.60;;;;;;5093708;28;19916;-74
2023/03/05 05:46:44;;;;;;;;;;;4.10;99.60;;;;;;5088280;28;19962;-74
2023/03/05 05:49:09;;;;;;;;;;;4.10;99.60;;;;;;5087460;28;19912;-73
2023/03/05 05:51:35;;;;;;;;;;;4.10;99.60;;;;;;5088136;28;19908;-73
2023/03/05 05:54:00;;;;;;;;;;;4.10;99.60;;;;;;5088740;28;19919;-73
2023/03/05 05:56:26;;;;;;;;;;;4.10;99.60;;;;;;5087961;28;19912;-73
2023/03/05 05:58:52;;;;;;;;;;;4.10;99.50;;;;;;5087788;28;20416;-73
2023/03/05 06:01:26;;;;;;;;;;;4.10;99.60;;;;;;5093445;28;19927;-73
2023/03/05 06:03:52;;;;;;;;;;;4.10;99.60;;;;;;5087314;28;20005;-73
2023/03/05 06:06:18;;;;;;;;;;;4.10;99.60;;;;;;5087777;28;20618;-73
2023/03/05 06:08:44;;;;;;;;;;;4.10;99.50;;;;;;5084569;28;19916;-73
2023/03/05 06:11:10;;;;;;;;;;;4.10;99.50;;;;;;5086018;28;20567;-74
2023/03/05 06:13:36;;;;;;;;;;;4.10;99.50;;;;;;5088025;28;19908;-74
2023/03/05 06:16:02;;;;;;;;;;;4.10;99.50;;;;;;5088567;28;19916;-73
2023/03/05 06:18:28;;;;;;;;;;;4.10;99.50;;;;;;5107871;28;19919;-74
2023/03/05 06:20:57;;;;;;;;;;;4.10;99.50;;;;;;5106564;28;19916;-73
2023/03/05 06:23:24;;;;;;;;;;;4.10;99.50;;;;;;5100263;28;19916;-74
2023/03/05 06:25:49;;;;;;;;;;;4.10;99.50;;;;;;5087374;28;19916;-73
2023/03/05 06:28:15;;;;;;;;;;;4.10;99.80;;;;;;5086753;28;19965;-73
2023/03/05 06:30:40;;;;;;;;;;;4.10;99.50;;;;;;5098154;28;19916;-73
2023/03/05 06:33:06;;;;;;;;;;;4.10;99.50;;;;;;5107649;28;19915;-73
2023/03/05 06:35:32;;;;;;;;;;;4.10;99.50;;;;;;5100365;28;19919;-74
2023/03/05 06:37:57;;;;;;;;;;;4.10;99.50;;;;;;5086213;28;19937;-73
2023/03/05 06:40:23;;;;;;;;;;;4.10;99.50;;;;;;5091826;28;20033;-74
2023/03/05 06:42:48;;;;;;;;;;;4.10;99.60;;;;;;5073930;28;20356;-73
2023/03/05 06:45:14;;;;;;;;;;;4.10;99.60;;;;;;5119822;27;19951;-73
2023/03/05 06:47:39;;;;;;;;;;;4.10;99.60;;;;;;5089850;28;19913;-73
2023/03/05 06:50:05;;;;;;;;;;;4.10;99.60;;;;;;5091458;28;19908;-73
2023/03/05 06:52:31;;;;;;;;;;;4.10;99.60;;;;;;5091417;28;20438;-74
2023/03/05 06:54:56;;;;;;;;;;;4.10;99.60;;;;;;5092324;28;19912;-73
2023/03/05 06:57:22;;;;;;;;;;;4.10;99.60;;;;;;5091086;28;19938;-73
2023/03/05 06:59:48;;;;;;;;;;;4.10;99.60;;;;;;5093330;28;19936;-73
2023/03/05 07:02:14;;;;;;;;;;;4.10;99.60;;;;;;5092627;28;19916;-74
2023/03/05 07:04:40;;;;;;;;;;;4.10;99.60;;;;;;5089877;28;19987;-74
2023/03/05 07:07:05;;;;;;;;;;;4.10;99.60;;;;;;5091010;28;20003;-74
2023/03/05 07:09:31;;;;;;;;;;;4.10;99.60;;;;;;5090405;28;20254;-73
2023/03/05 07:11:56;;;;;;;;;;;4.10;99.60;;;;;;5090898;28;19915;-73
2023/03/05 07:14:22;;;;;;;;;;;4.10;99.60;;;;;;5090823;28;19911;-74
2023/03/05 07:16:47;;;;;;;;;;;4.10;99.60;;;;;;5099945;28;19923;-74
2023/03/05 07:19:13;;;;;;;;;;;4.10;99.60;;;;;;5109515;28;19915;-74
2023/03/05 07:21:38;;;;;;;;;;;4.10;99.60;;;;;;5111273;28;19907;-73
2023/03/05 07:24:04;;;;;;;;;;;4.10;99.60;;;;;;5099292;28;19947;-74
2023/03/05 07:26:32;;;;;;;;;;;4.10;99.60;;;;;;5091136;28;20272;-74
2023/03/05 07:28:58;;;;;;;;;;;4.10;99.60;;;;;;5090557;28;20706;-73
2023/03/05 07:31:29;;;;;;;;;;;4.10;99.60;;;;;;5090666;28;19914;-74
2023/03/05 07:33:54;;;;;;;;;;;4.10;99.60;;;;;;5104184;28;19916;-74
2023/03/05 07:36:20;;;;;;;;;;;4.10;99.60;;;;;;5094035;28;19957;-73
2023/03/05 07:38:45;;;;;;;;;;;4.10;99.60;;;;;;5090216;28;19931;-74
2023/03/05 07:41:12;;;;;;;;;;;4.10;99.60;;;;;;5090334;28;19954;-73
2023/03/05 07:43:38;;;;;;;;;;;4.10;99.60;;;;;;5090226;28;19938;-74
2023/03/05 07:46:04;;;;;;;;;;;4.10;99.60;;;;;;5089135;28;19912;-73
2023/03/05 07:48:29;;;;;;;;;;;4.10;99.60;;;;;;5089968;28;20451;-74
2023/03/05 07:51:02;;;;;;;;;;;4.20;99.60;;;;;;5091422;28;20002;-74
2023/03/05 07:53:27;;;;;;;;;;;4.10;99.60;;;;;;5090961;28;19912;-74
2023/03/05 07:55:53;;;;;;;;;;;4.20;99.60;;;;;;5090471;28;19958;-73
2023/03/05 07:58:18;;;;;;;;;;;4.10;99.60;;;;;;5089824;28;19916;-73
2023/03/05 08:00:44;;;;;;;;;;;4.20;99.60;;;;;;5089967;28;19950;-73
2023/03/05 08:03:09;;;;;;;;;;;4.20;99.60;;;;;;5089856;28;19916;-73
2023/03/05 08:05:37;;;;;;;;;;;4.20;99.60;;;;;;5091445;28;19919;-73
2023/03/05 08:08:03;;;;;;;;;;;4.20;99.70;;;;;;5089737;28;19912;-74
2023/03/05 08:10:28;;;;;;;;;;;4.20;99.60;;;;;;5086771;28;20424;-74
2023/03/05 08:12:54;;;;;;;;;;;4.20;99.60;;;;;;5122657;27;19916;-73
2023/03/05 08:15:19;;;;;;;;;;;4.20;99.60;;;;;;5088390;28;19912;-74
2023/03/05 08:17:45;;;;;;;;;;;4.30;99.60;;;;;;5089243;28;19920;-73
2023/03/05 08:20:11;;;;;;;;;;;4.30;99.60;;;;;;5089563;28;20007;-74
2023/03/05 08:22:37;;;;;;;;;;;4.30;99.60;;;;;;5101554;28;20008;-74
2023/03/05 08:25:03;;;;;;;;;;;4.40;99.60;;;;;;5090264;28;19919;-75
2023/03/05 08:27:28;;;;;;;;;;;4.40;99.60;;;;;;5089599;28;19912;-74
2023/03/05 08:29:54;;;;;;;;;;;4.40;99.50;;;;;;5089622;28;19916;-74
2023/03/05 08:32:20;;;;;;;;;;;4.40;99.60;;;;;;5094333;28;19955;-74
2023/03/05 08:34:45;;;;;;;;;;;4.40;99.50;;;;;;5107177;28;19912;-75
2023/03/05 08:37:10;;;;;;;;;;;4.40;99.50;;;;;;5088953;28;19955;-73
2023/03/05 08:39:36;;;;;;;;;;;4.40;99.50;;;;;;5089346;28;20524;-74
2023/03/05 08:42:02;;;;;;;;;;;4.40;99.60;;;;;;5078301;28;19916;-74
2023/03/05 08:44:27;;;;;;;;;;;4.40;99.60;;;;;;5069044;28;20487;-74
2023/03/05 08:46:53;;;;;;;;;;;4.40;99.60;;;;;;5088631;28;19919;-74
2023/03/05 08:49:18;;;;;;;;;;;4.40;99.60;;;;;;5109468;28;19912;-74
2023/03/05 08:51:44;;;;;;;;;;;4.40;99.60;;;;;;5109681;28;20423;-74
2023/03/05 08:54:09;;;;;;;;;;;4.40;99.60;;;;;;5096886;28;19916;-74
2023/03/05 08:56:35;;;;;;;;;;;4.40;99.70;;;;;;5088072;28;19991;-74
2023/03/05 08:59:01;;;;;;;;;;;4.40;99.60;;;;;;5088522;28;20265;-74
2023/03/05 09:01:27;;;;;;;;;;;4.50;99.70;;;;;;5086963;28;20615;-74
2023/03/05 09:03:52;;;;;;;;;;;4.50;99.60;;;;;;5107382;28;20022;-74
2023/03/05 09:06:18;;;;;;;;;;;4.50;99.60;;;;;;5095052;28;19911;-74
2023/03/05 09:08:43;;;;;;;;;;;4.50;99.70;;;;;;5088024;28;20014;-74
2023/03/05 09:11:10;;;;;;;;;;;4.50;99.60;;;;;;5088302;28;19994;-73
2023/03/05 09:13:36;;;;;;;;;;;4.40;99.60;;;;;;5088879;28;19908;-73
2023/03/05 09:16:03;;;;;;;;;;;4.50;99.70;;;;;;5088749;28;19912;-73
2023/03/05 09:18:29;;;;;;;;;;;4.50;99.70;;;;;;5089260;28;20010;-73
2023/03/05 09:20:55;;;;;;;;;;;4.50;99.80;;;;;;5088974;28;20030;-73
2023/03/05 09:23:21;;;;;;;;;;;4.50;99.80;;;;;;5089307;28;20017;-74
2023/03/05 09:25:48;;;;;;;;;;;4.50;99.80;;;;;;5088712;28;20361;-73
2023/03/05 09:28:13;;;;;;;;;;;4.50;99.80;;;;;;5088159;28;19908;-74
2023/03/05 09:30:39;;;;;;;;;;;4.50;99.70;;;;;;5088410;28;19912;-73
2023/03/05 09:33:05;;;;;;;;;;;4.50;99.70;;;;;;5094075;28;19969;-73
2023/03/05 09:35:33;;;;;;;;;;;4.50;99.70;;;;;;5101179;28;19908;-74
2023/03/05 09:37:58;;;;;;;;;;;4.50;99.70;;;;;;5087842;28;19915;-73
2023/03/05 09:40:24;;;;;;;;;;;4.50;99.80;;;;;;5087242;28;19916;-73
2023/03/05 09:43:12;;;;;;;;;;;4.50;99.80;;;;;;5076547;28;20006;-73
2023/03/05 09:45:43;;;;;;;;;;;4.50;99.90;;;;;;5087598;28;19938;-73
2023/03/05 09:48:15;;;;;;;;;;;4.50;99.90;;;;;;5088736;28;19912;-73
2023/03/05 09:50:49;;;;;;;;;;;4.50;99.90;;;;;;5087509;28;20288;-73
2023/03/05 09:53:15;;;;;;;;;;;4.50;99.90;;;;;;5089405;28;19957;-73
2023/03/05 09:55:42;;;;;;;;;;;4.50;99.90;;;;;;5107545;28;20522;-74
2023/03/05 09:58:11;;;;;;;;;;;4.50;99.90;;;;;;5106927;28;19915;-74
2023/03/05 10:00:39;;;;;;;;;;;4.50;99.80;;;;;;5102805;28;19916;-73
2023/03/05 10:03:09;;;;;;;;;;;4.50;99.90;;;;;;5092754;28;19960;-74
2023/03/05 10:05:47;;;;;;;;;;;4.60;99.90;;;;;;5093524;28;19986;-73
2023/03/05 10:08:13;;;;;;;;;;;4.60;99.80;;;;;;5086710;28;19916;-73
2023/03/05 10:10:44;;;;;;;;;;;4.70;99.80;;;;;;5086555;28;19908;-73
2023/03/05 10:13:19;;;;;;;;;;;4.70;99.60;;;;;;5087814;28;19955;-73
2023/03/05 10:15:54;;;;;;;;;;;4.80;99.50;;;;;;5091564;28;19912;-74
2023/03/05 10:18:38;;;;;;;;;;;4.80;99.50;;;;;;5093561;28;19965;-73
2023/03/05 10:21:12;;;;;;;;;;;4.80;99.60;;;;;;5105875;28;19923;-74
2023/03/05 10:23:53;;;;;;;;;;;4.80;99.60;;;;;;5102975;28;19927;-74
2023/03/05 10:26:40;;;;;;;;;;;4.80;99.60;;;;;;5091201;28;19912;-73
2023/03/05 10:29:05;;;;;;;;;;;4.90;99.60;;;;;;5090843;28;19913;-74
2023/03/05 10:31:34;;;;;;;;;;;4.90;99.70;;;;;;5091344;28;19915;-74
2023/03/05 10:34:11;;;;;;;;;;;4.90;99.60;;;;;;5091026;28;19916;-74
2023/03/05 10:36:40;;;;;;;;;;;4.90;99.70;;;;;;5091685;28;19919;-74
2023/03/05 10:39:15;;;;;;;;;;;4.90;99.60;;;;;;5111170;28;19966;-74
2023/03/05 10:42:01;;;;;;;;;;;4.90;99.60;;;;;;5103202;28;20607;-74
2023/03/05 10:44:39;;;;;;;;;;;5.00;99.60;;;;;;5090800;28;19923;-74
2023/03/05 10:47:11;;;;;;;;;;;5.00;99.50;;;;;;5106110;28;19916;-74
2023/03/05 10:49:44;;;;;;;;;;;5.00;99.50;;;;;;5091420;28;19916;-74
2023/03/05 10:52:15;;;;;;;;;;;5.00;99.60;;;;;;5090682;28;19922;-74
2023/03/05 10:54:42;;;;;;;;;;;5.00;99.60;;;;;;5091385;28;19919;-74
2023/03/05 10:57:22;;;;;;;;;;;5.00;99.60;;;;;;5106930;28;19950;-74
2023/03/05 10:59:57;;;;;;;;;;;5.10;99.60;;;;;;5070327;28;19913;-74
2023/03/05 11:02:22;;;;;;;;;;;5.10;99.50;;;;;;5089943;28;19916;-74
2023/03/05 11:04:49;;;;;;;;;;;5.10;99.50;;;;;;5096864;28;19916;-74
2023/03/05 11:07:14;;;;;;;;;;;5.10;99.50;;;;;;5089940;28;19919;-73
2023/03/05 11:09:41;;;;;;;;;;;5.10;99.50;;;;;;5087689;28;20424;-74
2023/03/05 11:12:15;;;;;;;;;;;5.10;99.50;;;;;;5089690;28;19923;-74
2023/03/05 11:15:00;;;;;;;;;;;5.10;99.60;;;;;;5090166;28;20338;-74
2023/03/05 11:17:29;;;;;;;;;;;5.10;99.60;;;;;;5089743;27;19922;-74
2023/03/05 11:19:55;;;;;;;;;;;5.10;99.50;;;;;;5108801;28;19950;-74
2023/03/05 11:22:22;;;;;;;;;;;5.10;99.50;;;;;;5091048;28;19966;-74
2023/03/05 11:25:11;;;;;;;;;;;5.20;99.50;;;;;;5090535;28;20365;-74
2023/03/05 11:27:38;;;;;;;;;;;5.20;99.50;;;;;;5089792;28;20430;-74
2023/03/05 11:30:16;;;;;;;;;;;5.20;99.40;;;;;;5089915;28;19908;-74
2023/03/05 11:32:42;;;;;;;;;;;5.20;99.40;;;;;;5089807;28;20383;-74
2023/03/05 11:35:21;;;;;;;;;;;5.30;99.40;;;;;;5093798;28;20003;-74
2023/03/05 11:37:58;;;;;;;;;;;5.30;99.30;;;;;;5089316;28;20318;-74
2023/03/05 11:40:24;;;;;;;;;;;5.30;99.30;;;;;;5089699;28;20452;-74
2023/03/05 11:42:54;;;;;;;;;;;5.30;99.30;;;;;;5086447;28;19923;-74
2023/03/05 11:45:20;;;;;;;;;;;5.30;99.30;;;;;;5089693;28;19912;-74
2023/03/05 11:47:50;;;;;;;;;;;5.40;99.30;;;;;;5089226;28;19923;-74
2023/03/05 11:50:15;;;;;;;;;;;5.30;99.30;;;;;;5089428;28;19912;-75
2023/03/05 11:52:45;;;;;;;;;;;5.30;99.30;;;;;;5091790;28;19916;-75
2023/03/05 11:55:11;;;;;;;;;;;5.40;99.30;;;;;;5101323;28;19912;-74
2023/03/05 11:57:42;;;;;;;;;;;5.40;99.40;;;;;;5068986;28;19960;-74
2023/03/05 12:00:13;;;;;;;;;;;5.40;99.30;;;;;;5069653;28;20284;-74
2023/03/05 12:02:39;;;;;;;;;;;5.40;99.30;;;;;;5089113;28;19916;-74
2023/03/05 12:05:05;;;;;;;;;;;5.50;99.20;;;;;;5089227;28;20372;-74
2023/03/05 12:07:40;;;;;;;;;;;5.60;99.20;;;;;;5090005;28;19938;-74
2023/03/05 12:10:05;;;;;;;;;;;5.60;99.10;;;;;;5088544;28;19942;-75
2023/03/05 12:12:46;;;;;;;;;;;5.70;99.00;;;;;;5088966;28;20361;-74
2023/03/05 12:15:24;;;;;;;;;;;5.80;99.00;;;;;;5087787;28;19912;-74
2023/03/05 12:17:49;;;;;;;;;;;5.80;98.90;;;;;;5088685;28;19927;-74
2023/03/05 12:20:25;;;;;;;;;;;5.80;98.70;;;;;;5101179;28;20268;-74
2023/03/05 12:22:51;;;;;;;;;;;5.90;98.60;;;;;;5109072;28;19916;-74
2023/03/05 12:25:22;;;;;;;;;;;5.90;98.50;;;;;;5109168;28;19919;-74
2023/03/05 12:27:48;;;;;;;;;;;6.00;98.50;;;;;;5101211;28;19916;-74
2023/03/05 12:30:36;;;;;;;;;;;6.00;98.40;;;;;;5083967;28;19961;-75
2023/03/05 12:33:04;;;;;;;;;;;6.10;98.40;;;;;;5105494;28;19920;-75
2023/03/05 12:35:31;;;;;;;;;;;6.10;98.30;;;;;;5093698;28;19920;-74
2023/03/05 12:37:58;;;;;;;;;;;6.10;98.30;;;;;;5087889;28;19919;-74
2023/03/05 12:40:24;;;;;;;;;;;6.20;98.20;;;;;;5088709;28;20592;-74
2023/03/05 12:42:59;;;;;;;;;;;6.20;98.20;;;;;;5070490;28;19939;-75
2023/03/05 12:45:44;;;;;;;;;;;6.30;98.20;;;;;;5068464;28;19912;-74
2023/03/05 12:48:11;;;;;;;;;;;6.30;98.10;;;;;;5067876;28;19913;-74
2023/03/05 12:50:36;;;;;;;;;;;6.40;98.00;;;;;;5099952;27;19923;-74
2023/03/05 12:53:12;;;;;;;;;;;6.40;97.90;;;;;;5099151;28;19912;-74
2023/03/05 12:55:46;;;;;;;;;;;6.50;97.80;;;;;;5098952;28;19911;-74
2023/03/05 12:58:32;;;;;;;;;;;6.60;97.70;;;;;;5098384;28;19965;-74
2023/03/05 13:01:10;;;;;;;;;;;6.60;97.70;;;;;;5094197;28;20279;-74
2023/03/05 13:03:39;;;;;;;;;;;6.60;97.70;;;;;;5096424;28;19916;-75
2023/03/05 13:06:06;;;;;;;;;;;6.70;97.50;;;;;;5099369;28;19927;-74
2023/03/05 13:08:36;;;;;;;;;;;6.80;97.50;;;;;;5090117;28;19916;-74
2023/03/05 13:11:21;;;;;;;;;;;6.80;97.40;;;;;;5085763;28;19912;-74
2023/03/05 13:13:47;;;;;;;;;;;6.80;97.40;;;;;;5086898;28;19915;-74
2023/03/05 13:16:20;;;;;;;;;;;6.90;97.30;;;;;;5087279;28;19912;-75
2023/03/05 13:18:47;;;;;;;;;;;6.90;97.30;;;;;;5087189;28;19916;-74
2023/03/05 13:21:14;;;;;;;;;;;6.90;97.40;;;;;;5106672;28;19920;-75
2023/03/05 13:23:56;;;;;;;;;;;6.90;97.40;;;;;;5107822;28;19916;-74
2023/03/05 13:26:23;;;;;;;;;;;6.90;97.30;;;;;;5108046;28;19957;-74
2023/03/05 13:29:02;;;;;;;;;;;6.90;97.30;;;;;;5107096;28;21452;-75
2023/03/05 13:31:28;;;;;;;;;;;7.00;97.40;;;;;;5092112;28;19919;-75
2023/03/05 13:34:04;;;;;;;;;;;7.00;97.60;;;;;;5087265;28;19916;-75
2023/03/05 13:36:29;;;;;;;;;;;7.00;97.60;;;;;;5087538;28;19912;-75
2023/03/05 13:38:55;;;;;;;;;;;7.00;97.50;;;;;;5087007;28;19923;-74
2023/03/05 13:41:25;;;;;;;;;;;7.00;97.60;;;;;;5087007;28;19912;-74
2023/03/05 13:43:53;;;;;;;;;;;7.00;97.50;;;;;;5086875;28;19916;-75
2023/03/05 13:46:24;;;;;;;;;;;7.00;97.40;;;;;;5087413;28;19984;-74
2023/03/05 13:48:49;;;;;;;;;;;7.00;97.50;;;;;;5103074;28;19922;-75
2023/03/05 13:51:15;;;;;;;;;;;7.00;97.50;;;;;;5107612;28;19912;-74
2023/03/05 13:53:40;;;;;;;;;;;6.90;97.60;;;;;;5107291;28;19908;-74
2023/03/05 13:56:07;;;;;;;;;;;7.00;97.70;;;;;;5107721;28;19912;-74
2023/03/05 13:58:52;;;;;;;;;;;7.00;97.80;;;;;;5107364;28;19934;-74
2023/03/05 14:01:17;;;;;;;;;;;7.00;97.50;;;;;;5097810;28;19955;-75
2023/03/05 14:03:44;;;;;;;;;;;7.10;97.50;;;;;;5102104;28;20407;-74
2023/03/05 14:06:11;;;;;;;;;;;7.10;97.40;;;;;;5092233;28;19923;-74
2023/03/05 14:08:36;;;;;;;;;;;7.20;97.50;;;;;;5106325;28;19927;-74
2023/03/05 14:11:15;;;;;;;;;;;7.10;97.30;;;;;;5087535;28;19916;-74
2023/03/05 14:13:41;;;;;;;;;;;7.10;97.10;;;;;;5087632;28;19908;-74
2023/03/05 14:16:08;;;;;;;;;;;7.20;97.20;;;;;;5088019;28;19915;-74
2023/03/05 14:18:34;;;;;;;;;;;7.20;97.30;;;;;;5093887;28;19920;-74
2023/03/05 14:21:07;;;;;;;;;;;7.10;97.30;;;;;;5101466;28;19923;-74
2023/03/05 14:23:33;;;;;;;;;;;7.20;97.40;;;;;;5107907;28;20412;-75
2023/03/05 14:26:17;;;;;;;;;;;7.20;97.30;;;;;;5108215;28;19918;-75
2023/03/05 14:28:42;;;;;;;;;;;7.20;97.20;;;;;;5107700;28;19931;-75
2023/03/05 14:31:16;;;;;;;;;;;7.10;97.20;;;;;;5094855;28;20285;-74
2023/03/05 14:33:41;;;;;;;;;;;7.10;97.30;;;;;;5087535;28;20361;-75